sensor_id;sensor_type;location;lat;lon;timestamp;pressure;altitude;pressure_sealevel;temperature;humidity
68376;BME280;55318;52.068;5.188;2023-03-03T00:00:55;102567.0;;;3.45;88.25
68376;BME280;55318;52.068;5.188;2023-03-03T00:02:31;102566.00000000001;;;3.5;88.23
68376;BME280;55318;52.068;5.188;2023-03-03T00:05:44;102567.0;;;3.35;88.71
68376;BME280;55318;52.068;5.188;2023-03-03T00:07:20;102568.0;;;3.42;88.56
68376;BME280;55318;52.068;5.188;2023-03-03T00:08:56;102567.0;;;3.32;88.53
68376;BME280;55318;52.068;5.188;2023-03-03T00:12:19;102570.0;;;3.36;88.36
68376;BME280;55318;52.068;5.188;2023-03-03T00:13:57;102570.0;;;3.41;88.48
68376;BME280;55318;52.068;5.188;2023-03-03T00:15:35;102573.0;;;3.25;88.95
68376;BME280;55318;52.068;5.188;2023-03-03T00:17:15;102574.0;;;3.34;88.6
68376;BME280;55318;52.068;5.188;2023-03-03T00:20:35;102570.0;;;3.16;89.21
68376;BME280;55318;52.068;5.188;2023-03-03T00:22:27;102573.0;;;3.12;89.65
68376;BME280;55318;52.068;5.188;2023-03-03T00:24:16;102570.0;;;3.17;89.76
68376;BME280;55318;52.068;5.188;2023-03-03T00:25:54;102574.0;;;3.09;90.19
68376;BME280;55318;52.068;5.188;2023-03-03T00:27:34;102574.0;;;3.1;90.27
68376;BME280;55318;52.068;5.188;2023-03-03T00:31:14;102571.0;;;3.12;90.05
68376;BME280;55318;52.068;5.188;2023-03-03T00:32:52;102568.0;;;3.21;89.56
68376;BME280;55318;52.068;5.188;2023-03-03T00:34:28;102573.0;;;3.09;89.79
68376;BME280;55318;52.068;5.188;2023-03-03T00:36:35;102571.0;;;2.99;90.26
68376;BME280;55318;52.068;5.188;2023-03-03T00:38:13;102572.0;;;3.05;90.15
68376;BME280;55318;52.068;5.188;2023-03-03T00:41:29;102572.0;;;3.07;89.89
68376;BME280;55318;52.068;5.188;2023-03-03T00:43:16;102581.0;;;2.99;90.41
68376;BME280;55318;52.068;5.188;2023-03-03T00:44:55;102582.0;;;2.92;90.51
68376;BME280;55318;52.068;5.188;2023-03-03T00:46:35;102579.0;;;2.89;90.83
68376;BME280;55318;52.068;5.188;2023-03-03T00:50:20;102579.0;;;2.81;91.28
68376;BME280;55318;52.068;5.188;2023-03-03T00:52:00;102577.0;;;2.87;91.07
68376;BME280;55318;52.068;5.188;2023-03-03T00:53:36;102577.0;;;2.85;90.75
68376;BME280;55318;52.068;5.188;2023-03-03T00:55:12;102577.0;;;2.88;90.96
68376;BME280;55318;52.068;5.188;2023-03-03T00:56:48;102582.0;;;2.85;91.0
68376;BME280;55318;52.068;5.188;2023-03-03T01:00:03;102581.0;;;3.04;90.56
68376;BME280;55318;52.068;5.188;2023-03-03T01:01:40;102581.0;;;3.12;90.26
68376;BME280;55318;52.068;5.188;2023-03-03T01:03:17;102584.99999999999;;;3.18;90.2
68376;BME280;55318;52.068;5.188;2023-03-03T01:06:31;102583.99999999999;;;3.16;90.74
68376;BME280;55318;52.068;5.188;2023-03-03T01:08:07;102588.00000000001;;;3.15;90.71
68376;BME280;55318;52.068;5.188;2023-03-03T01:09:44;102588.00000000001;;;3.1;91.15
68376;BME280;55318;52.068;5.188;2023-03-03T01:13:01;102586.99999999999;;;3.08;91.69
68376;BME280;55318;52.068;5.188;2023-03-03T01:14:38;102591.00000000001;;;3.12;92.05
68376;BME280;55318;52.068;5.188;2023-03-03T01:16:15;102586.99999999999;;;3.05;92.56
68376;BME280;55318;52.068;5.188;2023-03-03T01:17:53;102592.0;;;3.0;92.39
68376;BME280;55318;52.068;5.188;2023-03-03T01:21:06;102592.0;;;3.02;93.04
68376;BME280;55318;52.068;5.188;2023-03-03T01:22:42;102592.0;;;2.96;93.11
68376;BME280;55318;52.068;5.188;2023-03-03T01:24:18;102590.00000000001;;;3.06;92.83
68376;BME280;55318;52.068;5.188;2023-03-03T01:27:34;102590.00000000001;;;3.24;92.25
68376;BME280;55318;52.068;5.188;2023-03-03T01:29:10;102589.00000000001;;;3.16;92.25
68376;BME280;55318;52.068;5.188;2023-03-03T01:30:46;102591.00000000001;;;3.2;92.18
68376;BME280;55318;52.068;5.188;2023-03-03T01:32:22;102592.0;;;3.37;91.84
68376;BME280;55318;52.068;5.188;2023-03-03T01:35:35;102598.0;;;3.36;91.55
68376;BME280;55318;52.068;5.188;2023-03-03T01:37:11;102598.0;;;3.14;91.89
68376;BME280;55318;52.068;5.188;2023-03-03T01:38:48;102595.0;;;3.13;92.23
68376;BME280;55318;52.068;5.188;2023-03-03T01:43:43;102592.0;;;3.15;92.22
68376;BME280;55318;52.068;5.188;2023-03-03T01:45:22;102597.0;;;2.93;93.18
68376;BME280;55318;52.068;5.188;2023-03-03T01:47:03;102599.0;;;3.03;92.57
68376;BME280;55318;52.068;5.188;2023-03-03T01:50:29;102599.0;;;3.09;91.96
68376;BME280;55318;52.068;5.188;2023-03-03T01:52:12;102601.0;;;2.95;92.41
68376;BME280;55318;52.068;5.188;2023-03-03T01:53:52;102603.0;;;2.83;92.87
68376;BME280;55318;52.068;5.188;2023-03-03T01:55:34;102603.0;;;2.79;93.09
68376;BME280;55318;52.068;5.188;2023-03-03T01:58:58;102603.0;;;2.77;93.21
68376;BME280;55318;52.068;5.188;2023-03-03T02:00:38;102602.0;;;2.9;93.01
68376;BME280;55318;52.068;5.188;2023-03-03T02:02:16;102601.0;;;2.66;93.34
68376;BME280;55318;52.068;5.188;2023-03-03T02:03:52;102601.0;;;2.74;93.36
68376;BME280;55318;52.068;5.188;2023-03-03T02:07:06;102604.0;;;2.77;93.53
68376;BME280;55318;52.068;5.188;2023-03-03T02:08:50;102602.0;;;2.8;93.62
68376;BME280;55318;52.068;5.188;2023-03-03T02:10:29;102605.0;;;2.92;93.1
68376;BME280;55318;52.068;5.188;2023-03-03T02:12:09;102599.0;;;2.93;92.92
68376;BME280;55318;52.068;5.188;2023-03-03T02:15:25;102604.0;;;2.96;92.79
68376;BME280;55318;52.068;5.188;2023-03-03T02:17:02;102601.0;;;2.98;92.66
68376;BME280;55318;52.068;5.188;2023-03-03T02:18:38;102600.0;;;2.92;93.03
68376;BME280;55318;52.068;5.188;2023-03-03T02:22:01;102600.0;;;3.07;92.64
68376;BME280;55318;52.068;5.188;2023-03-03T02:23:43;102602.0;;;2.84;93.28
68376;BME280;55318;52.068;5.188;2023-03-03T02:25:29;102595.0;;;2.73;93.74
68376;BME280;55318;52.068;5.188;2023-03-03T02:27:09;102599.0;;;2.73;93.93
68376;BME280;55318;52.068;5.188;2023-03-03T02:30:24;102601.0;;;2.87;93.63
68376;BME280;55318;52.068;5.188;2023-03-03T02:32:00;102601.0;;;2.84;93.8
68376;BME280;55318;52.068;5.188;2023-03-03T02:33:37;102599.0;;;2.93;93.38
68376;BME280;55318;52.068;5.188;2023-03-03T02:35:32;102598.0;;;3.04;93.09
68376;BME280;55318;52.068;5.188;2023-03-03T02:38:49;102596.0;;;2.93;93.66
68376;BME280;55318;52.068;5.188;2023-03-03T02:40:33;102596.0;;;3.01;93.45
68376;BME280;55318;52.068;5.188;2023-03-03T02:42:15;102595.0;;;3.0;93.68
68376;BME280;55318;52.068;5.188;2023-03-03T02:43:58;102599.0;;;3.13;93.2
68376;BME280;55318;52.068;5.188;2023-03-03T02:45:41;102597.0;;;3.08;92.76
68376;BME280;55318;52.068;5.188;2023-03-03T02:48:54;102599.0;;;3.12;92.4
68376;BME280;55318;52.068;5.188;2023-03-03T02:50:30;102602.0;;;3.07;92.53
68376;BME280;55318;52.068;5.188;2023-03-03T02:52:06;102603.0;;;3.05;92.73
68376;BME280;55318;52.068;5.188;2023-03-03T02:55:22;102601.0;;;2.96;92.71
68376;BME280;55318;52.068;5.188;2023-03-03T02:56:59;102600.0;;;2.97;92.95
68376;BME280;55318;52.068;5.188;2023-03-03T02:58:36;102602.0;;;2.91;93.31
68376;BME280;55318;52.068;5.188;2023-03-03T03:00:13;102604.0;;;2.95;92.81
68376;BME280;55318;52.068;5.188;2023-03-03T03:03:27;102607.0;;;3.04;92.74
68376;BME280;55318;52.068;5.188;2023-03-03T03:05:03;102606.0;;;3.08;92.63
68376;BME280;55318;52.068;5.188;2023-03-03T03:06:41;102608.0;;;2.93;92.88
68376;BME280;55318;52.068;5.188;2023-03-03T03:09:53;102603.0;;;3.11;92.19
68376;BME280;55318;52.068;5.188;2023-03-03T03:11:29;102603.0;;;3.09;92.23
68376;BME280;55318;52.068;5.188;2023-03-03T03:13:06;102597.0;;;3.09;92.23
68376;BME280;55318;52.068;5.188;2023-03-03T03:16:18;102597.0;;;2.99;92.4
68376;BME280;55318;52.068;5.188;2023-03-03T03:17:54;102600.0;;;3.03;91.95
68376;BME280;55318;52.068;5.188;2023-03-03T03:19:30;102603.0;;;2.83;92.39
68376;BME280;55318;52.068;5.188;2023-03-03T03:21:08;102602.0;;;2.87;92.08
68376;BME280;55318;52.068;5.188;2023-03-03T03:24:22;102601.0;;;2.87;92.32
68376;BME280;55318;52.068;5.188;2023-03-03T03:25:58;102606.0;;;2.89;91.83
68376;BME280;55318;52.068;5.188;2023-03-03T03:27:34;102605.0;;;2.79;91.94
68376;BME280;55318;52.068;5.188;2023-03-03T03:30:46;102603.0;;;2.77;91.92
68376;BME280;55318;52.068;5.188;2023-03-03T03:32:22;102604.0;;;2.6;92.75
68376;BME280;55318;52.068;5.188;2023-03-03T03:33:57;102601.0;;;2.62;92.85
68376;BME280;55318;52.068;5.188;2023-03-03T03:37:11;102604.0;;;2.54;93.63
68376;BME280;55318;52.068;5.188;2023-03-03T03:38:47;102602.0;;;2.6;93.44
68376;BME280;55318;52.068;5.188;2023-03-03T03:40:23;102609.99999999999;;;2.56;93.79
68376;BME280;55318;52.068;5.188;2023-03-03T03:43:35;102608.99999999999;;;2.59;93.44
68376;BME280;55318;52.068;5.188;2023-03-03T03:45:12;102609.99999999999;;;2.52;93.99
68376;BME280;55318;52.068;5.188;2023-03-03T03:46:48;102611.99999999999;;;2.56;94.17
68376;BME280;55318;52.068;5.188;2023-03-03T03:48:25;102615.00000000001;;;2.56;94.02
68376;BME280;55318;52.068;5.188;2023-03-03T03:51:38;102606.0;;;2.57;94.59
68376;BME280;55318;52.068;5.188;2023-03-03T03:53:14;102613.00000000001;;;2.56;94.96
68376;BME280;55318;52.068;5.188;2023-03-03T03:54:51;102609.99999999999;;;2.63;94.81
68376;BME280;55318;52.068;5.188;2023-03-03T03:58:03;102618.0;;;2.6;94.68
68376;BME280;55318;52.068;5.188;2023-03-03T03:59:40;102621.0;;;2.64;94.9
68376;BME280;55318;52.068;5.188;2023-03-03T04:01:17;102620.0;;;2.61;94.85
68376;BME280;55318;52.068;5.188;2023-03-03T04:04:29;102617.0;;;2.69;94.89
68376;BME280;55318;52.068;5.188;2023-03-03T04:06:05;102618.0;;;2.73;94.62
68376;BME280;55318;52.068;5.188;2023-03-03T04:07:41;102620.0;;;2.86;93.96
68376;BME280;55318;52.068;5.188;2023-03-03T04:09:18;102620.0;;;2.79;94.28
68376;BME280;55318;52.068;5.188;2023-03-03T04:12:31;102623.0;;;2.87;93.87
68376;BME280;55318;52.068;5.188;2023-03-03T04:14:07;102622.0;;;2.85;94.24
68376;BME280;55318;52.068;5.188;2023-03-03T04:15:43;102624.0;;;2.86;94.25
68376;BME280;55318;52.068;5.188;2023-03-03T04:18:57;102625.0;;;2.86;94.11
68376;BME280;55318;52.068;5.188;2023-03-03T04:20:33;102631.0;;;2.85;94.26
68376;BME280;55318;52.068;5.188;2023-03-03T04:22:09;102632.0;;;2.71;94.86
68376;BME280;55318;52.068;5.188;2023-03-03T04:25:22;102622.0;;;2.76;95.08
68376;BME280;55318;52.068;5.188;2023-03-03T04:26:59;102623.0;;;2.62;95.29
68376;BME280;55318;52.068;5.188;2023-03-03T04:28:35;102620.0;;;2.75;95.16
68376;BME280;55318;52.068;5.188;2023-03-03T04:30:12;102623.0;;;2.75;95.41
68376;BME280;55318;52.068;5.188;2023-03-03T04:33:26;102622.0;;;2.69;95.93
68376;BME280;55318;52.068;5.188;2023-03-03T04:35:03;102626.0;;;2.68;96.44
68376;BME280;55318;52.068;5.188;2023-03-03T04:36:41;102628.0;;;2.84;95.82
68376;BME280;55318;52.068;5.188;2023-03-03T04:39:53;102631.0;;;2.84;95.93
68376;BME280;55318;52.068;5.188;2023-03-03T04:41:29;102626.0;;;2.97;95.44
68376;BME280;55318;52.068;5.188;2023-03-03T04:43:05;102632.0;;;2.88;95.62
68376;BME280;55318;52.068;5.188;2023-03-03T04:46:18;102632.0;;;3.0;95.32
68376;BME280;55318;52.068;5.188;2023-03-03T04:47:54;102632.0;;;3.0;95.04
68376;BME280;55318;52.068;5.188;2023-03-03T04:49:31;102628.0;;;3.12;95.0
68376;BME280;55318;52.068;5.188;2023-03-03T04:51:07;102623.0;;;3.09;94.82
68376;BME280;55318;52.068;5.188;2023-03-03T04:54:19;102624.0;;;3.13;94.67
68376;BME280;55318;52.068;5.188;2023-03-03T04:55:55;102628.0;;;3.1;94.99
68376;BME280;55318;52.068;5.188;2023-03-03T04:57:31;102629.0;;;3.15;94.95
68376;BME280;55318;52.068;5.188;2023-03-03T05:00:43;102630.0;;;3.0;95.18
68376;BME280;55318;52.068;5.188;2023-03-03T05:02:19;102631.0;;;3.2;94.89
68376;BME280;55318;52.068;5.188;2023-03-03T05:03:55;102633.0;;;3.22;94.69
68376;BME280;55318;52.068;5.188;2023-03-03T05:07:07;102630.0;;;3.14;94.68
68376;BME280;55318;52.068;5.188;2023-03-03T05:08:43;102636.99999999999;;;3.37;94.35
68376;BME280;55318;52.068;5.188;2023-03-03T05:10:20;102633.0;;;3.26;94.75
68376;BME280;55318;52.068;5.188;2023-03-03T05:13:32;102629.0;;;3.21;95.2
68376;BME280;55318;52.068;5.188;2023-03-03T05:15:08;102629.0;;;3.18;95.55
68376;BME280;55318;52.068;5.188;2023-03-03T05:16:47;102626.0;;;3.1;95.64
68376;BME280;55318;52.068;5.188;2023-03-03T05:18:24;102623.0;;;3.23;95.4
68376;BME280;55318;52.068;5.188;2023-03-03T05:21:38;102621.0;;;3.29;94.92
68376;BME280;55318;52.068;5.188;2023-03-03T05:23:14;102625.0;;;3.26;95.25
68376;BME280;55318;52.068;5.188;2023-03-03T05:24:52;102621.0;;;3.18;95.56
68376;BME280;55318;52.068;5.188;2023-03-03T05:28:04;102622.0;;;3.43;95.37
68376;BME280;55318;52.068;5.188;2023-03-03T05:29:40;102624.0;;;3.35;95.22
68376;BME280;55318;52.068;5.188;2023-03-03T05:31:16;102622.0;;;3.39;95.31
68376;BME280;55318;52.068;5.188;2023-03-03T05:34:28;102628.0;;;3.5;95.03
68376;BME280;55318;52.068;5.188;2023-03-03T05:36:05;102625.0;;;3.43;95.24
68376;BME280;55318;52.068;5.188;2023-03-03T05:37:42;102622.0;;;3.54;94.86
68376;BME280;55318;52.068;5.188;2023-03-03T05:39:18;102620.0;;;3.53;95.48
68376;BME280;55318;52.068;5.188;2023-03-03T05:42:30;102620.0;;;3.71;94.79
68376;BME280;55318;52.068;5.188;2023-03-03T05:44:07;102622.0;;;3.59;94.75
68376;BME280;55318;52.068;5.188;2023-03-03T05:45:43;102620.0;;;3.52;95.26
68376;BME280;55318;52.068;5.188;2023-03-03T05:48:56;102624.0;;;3.53;95.42
68376;BME280;55318;52.068;5.188;2023-03-03T05:50:32;102626.0;;;3.47;95.94
68376;BME280;55318;52.068;5.188;2023-03-03T05:52:08;102631.0;;;3.69;95.4
68376;BME280;55318;52.068;5.188;2023-03-03T05:55:20;102632.0;;;3.58;95.72
68376;BME280;55318;52.068;5.188;2023-03-03T05:56:56;102628.0;;;3.57;95.83
68376;BME280;55318;52.068;5.188;2023-03-03T05:58:32;102630.0;;;3.6;95.79
68376;BME280;55318;52.068;5.188;2023-03-03T06:00:10;102629.0;;;3.63;95.7
68376;BME280;55318;52.068;5.188;2023-03-03T06:03:23;102631.0;;;3.57;95.91
68376;BME280;55318;52.068;5.188;2023-03-03T06:04:59;102633.0;;;3.69;95.76
68376;BME280;55318;52.068;5.188;2023-03-03T06:06:35;102636.99999999999;;;3.67;95.72
68376;BME280;55318;52.068;5.188;2023-03-03T06:09:47;102633.99999999999;;;3.74;95.83
68376;BME280;55318;52.068;5.188;2023-03-03T06:11:23;102633.99999999999;;;3.48;96.48
68376;BME280;55318;52.068;5.188;2023-03-03T06:12:59;102633.0;;;3.59;96.61
68376;BME280;55318;52.068;5.188;2023-03-03T06:16:12;102638.00000000001;;;3.76;96.01
68376;BME280;55318;52.068;5.188;2023-03-03T06:17:48;102644.0;;;3.83;95.42
68376;BME280;55318;52.068;5.188;2023-03-03T06:19:24;102647.0;;;3.75;95.31
68376;BME280;55318;52.068;5.188;2023-03-03T06:21:01;102642.0;;;3.59;96.14
68376;BME280;55318;52.068;5.188;2023-03-03T06:24:14;102640.00000000001;;;3.59;96.66
68376;BME280;55318;52.068;5.188;2023-03-03T06:25:49;102650.0;;;3.74;96.47
68376;BME280;55318;52.068;5.188;2023-03-03T06:27:26;102649.0;;;3.88;95.82
68376;BME280;55318;52.068;5.188;2023-03-03T06:30:38;102654.0;;;3.8;96.07
68376;BME280;55318;52.068;5.188;2023-03-03T06:32:15;102649.0;;;3.84;96.27
68376;BME280;55318;52.068;5.188;2023-03-03T06:33:51;102652.0;;;3.83;96.04
68376;BME280;55318;52.068;5.188;2023-03-03T06:37:04;102653.0;;;3.83;96.11
68376;BME280;55318;52.068;5.188;2023-03-03T06:38:41;102652.0;;;3.92;95.85
68376;BME280;55318;52.068;5.188;2023-03-03T06:40:18;102652.0;;;3.81;96.32
68376;BME280;55318;52.068;5.188;2023-03-03T06:43:30;102651.0;;;3.83;96.48
68376;BME280;55318;52.068;5.188;2023-03-03T06:45:07;102655.0;;;3.78;96.29
68376;BME280;55318;52.068;5.188;2023-03-03T06:46:43;102664.00000000001;;;3.88;96.44
68376;BME280;55318;52.068;5.188;2023-03-03T06:48:19;102665.00000000001;;;3.9;96.11
68376;BME280;55318;52.068;5.188;2023-03-03T06:51:33;102666.00000000001;;;3.88;95.92
68376;BME280;55318;52.068;5.188;2023-03-03T06:53:12;102667.0;;;3.95;95.88
68376;BME280;55318;52.068;5.188;2023-03-03T06:54:53;102672.0;;;3.79;96.44
68376;BME280;55318;52.068;5.188;2023-03-03T06:58:13;102674.0;;;3.91;96.25
68376;BME280;55318;52.068;5.188;2023-03-03T06:59:52;102676.0;;;3.94;96.36
68376;BME280;55318;52.068;5.188;2023-03-03T07:01:32;102680.0;;;3.74;96.96
68376;BME280;55318;52.068;5.188;2023-03-03T07:03:14;102677.0;;;3.87;96.62
68376;BME280;55318;52.068;5.188;2023-03-03T07:06:31;102680.0;;;3.76;97.18
68376;BME280;55318;52.068;5.188;2023-03-03T07:08:12;102683.99999999999;;;3.91;96.99
68376;BME280;55318;52.068;5.188;2023-03-03T07:09:52;102683.99999999999;;;3.83;97.35
68376;BME280;55318;52.068;5.188;2023-03-03T07:11:29;102691.00000000001;;;3.86;97.4
68376;BME280;55318;52.068;5.188;2023-03-03T07:15:01;102693.0;;;3.73;98.0
68376;BME280;55318;52.068;5.188;2023-03-03T07:16:51;102692.0;;;3.79;98.19
68376;BME280;55318;52.068;5.188;2023-03-03T07:18:35;102699.0;;;3.82;98.15
68376;BME280;55318;52.068;5.188;2023-03-03T07:20:18;102696.0;;;4.07;97.29
68376;BME280;55318;52.068;5.188;2023-03-03T07:21:56;102700.0;;;3.99;97.2
68376;BME280;55318;52.068;5.188;2023-03-03T07:25:20;102701.0;;;4.08;97.18
68376;BME280;55318;52.068;5.188;2023-03-03T07:27:11;102702.0;;;4.22;96.4
68376;BME280;55318;52.068;5.188;2023-03-03T07:28:52;102703.0;;;4.28;96.05
68376;BME280;55318;52.068;5.188;2023-03-03T07:30:29;102704.0;;;4.24;96.12
68376;BME280;55318;52.068;5.188;2023-03-03T07:33:58;102705.0;;;4.34;95.79
68376;BME280;55318;52.068;5.188;2023-03-03T07:35:37;102702.0;;;4.45;95.39
68376;BME280;55318;52.068;5.188;2023-03-03T07:37:17;102707.0;;;4.49;95.07
68376;BME280;55318;52.068;5.188;2023-03-03T07:39:20;102708.99999999999;;;4.39;95.53
68376;BME280;55318;52.068;5.188;2023-03-03T07:41:09;102706.0;;;4.41;95.47
68376;BME280;55318;52.068;5.188;2023-03-03T07:42:46;102708.99999999999;;;4.17;96.34
68376;BME280;55318;52.068;5.188;2023-03-03T07:46:21;102714.00000000001;;;4.04;97.05
68376;BME280;55318;52.068;5.188;2023-03-03T07:48:08;102718.0;;;4.28;97.01
68376;BME280;55318;52.068;5.188;2023-03-03T07:49:55;102723.0;;;4.34;96.44
68376;BME280;55318;52.068;5.188;2023-03-03T07:51:37;102722.0;;;4.45;95.85
68376;BME280;55318;52.068;5.188;2023-03-03T07:53:22;102723.0;;;4.46;95.92
68376;BME280;55318;52.068;5.188;2023-03-03T07:57:14;102726.0;;;4.57;95.69
68376;BME280;55318;52.068;5.188;2023-03-03T07:58:57;102729.0;;;4.59;94.88
68376;BME280;55318;52.068;5.188;2023-03-03T08:01:37;102734.99999999999;;;4.43;95.29
68376;BME280;55318;52.068;5.188;2023-03-03T08:03:16;102741.00000000001;;;4.38;95.83
68376;BME280;55318;52.068;5.188;2023-03-03T08:04:53;102736.99999999999;;;4.49;95.91
68376;BME280;55318;52.068;5.188;2023-03-03T08:06:40;102742.0;;;4.39;95.87
68376;BME280;55318;52.068;5.188;2023-03-03T08:08:27;102741.00000000001;;;4.28;96.79
68376;BME280;55318;52.068;5.188;2023-03-03T08:10:28;102742.0;;;4.41;96.6
68376;BME280;55318;52.068;5.188;2023-03-03T08:12:21;102745.0;;;4.61;95.83
68376;BME280;55318;52.068;5.188;2023-03-03T08:14:14;102746.0;;;4.58;95.59
68376;BME280;55318;52.068;5.188;2023-03-03T08:17:37;102745.0;;;4.45;96.17
68376;BME280;55318;52.068;5.188;2023-03-03T08:19:16;102747.0;;;4.53;96.3
68376;BME280;55318;52.068;5.188;2023-03-03T08:20:55;102751.0;;;4.41;96.26
68376;BME280;55318;52.068;5.188;2023-03-03T08:22:34;102755.0;;;4.57;96.09
68376;BME280;55318;52.068;5.188;2023-03-03T08:25:47;102751.0;;;4.72;95.48
68376;BME280;55318;52.068;5.188;2023-03-03T08:27:24;102764.00000000001;;;4.63;95.5
68376;BME280;55318;52.068;5.188;2023-03-03T08:29:00;102759.99999999999;;;4.74;95.28
68376;BME280;55318;52.068;5.188;2023-03-03T08:32:13;102758.99999999999;;;4.75;95.04
68376;BME280;55318;52.068;5.188;2023-03-03T08:33:51;102756.0;;;4.86;94.7
68376;BME280;55318;52.068;5.188;2023-03-03T08:35:27;102763.00000000001;;;4.99;94.33
68376;BME280;55318;52.068;5.188;2023-03-03T08:37:03;102765.00000000001;;;4.95;94.24
68376;BME280;55318;52.068;5.188;2023-03-03T08:40:16;102759.99999999999;;;4.86;94.82
68376;BME280;55318;52.068;5.188;2023-03-03T08:41:52;102763.00000000001;;;4.78;95.24
68376;BME280;55318;52.068;5.188;2023-03-03T08:43:29;102764.00000000001;;;4.75;94.99
68376;BME280;55318;52.068;5.188;2023-03-03T08:46:42;102765.00000000001;;;4.88;95.1
68376;BME280;55318;52.068;5.188;2023-03-03T08:48:19;102764.00000000001;;;4.82;95.43
68376;BME280;55318;52.068;5.188;2023-03-03T08:49:56;102761.99999999999;;;4.92;94.73
68376;BME280;55318;52.068;5.188;2023-03-03T08:53:09;102772.0;;;4.99;93.97
68376;BME280;55318;52.068;5.188;2023-03-03T08:54:45;102764.00000000001;;;4.97;94.07
68376;BME280;55318;52.068;5.188;2023-03-03T08:56:22;102768.0;;;5.03;94.19
68376;BME280;55318;52.068;5.188;2023-03-03T08:57:58;102769.0;;;5.12;94.16
68376;BME280;55318;52.068;5.188;2023-03-03T09:01:10;102768.0;;;5.15;93.76
68376;BME280;55318;52.068;5.188;2023-03-03T09:02:46;102774.0;;;5.13;93.87
68376;BME280;55318;52.068;5.188;2023-03-03T09:04:23;102769.0;;;5.25;93.17
68376;BME280;55318;52.068;5.188;2023-03-03T09:07:35;102775.0;;;5.22;92.57
68376;BME280;55318;52.068;5.188;2023-03-03T09:09:13;102772.0;;;5.34;92.62
68376;BME280;55318;52.068;5.188;2023-03-03T09:10:49;102767.0;;;5.51;92.3
68376;BME280;55318;52.068;5.188;2023-03-03T09:14:09;102766.00000000001;;;5.45;91.64
68376;BME280;55318;52.068;5.188;2023-03-03T09:15:47;102767.0;;;5.66;90.96
68376;BME280;55318;52.068;5.188;2023-03-03T09:17:25;102767.0;;;5.47;91.05
68376;BME280;55318;52.068;5.188;2023-03-03T09:19:21;102767.0;;;5.67;91.08
68376;BME280;55318;52.068;5.188;2023-03-03T09:20:59;102761.99999999999;;;5.51;90.63
68376;BME280;55318;52.068;5.188;2023-03-03T09:24:22;102765.00000000001;;;5.63;90.31
68376;BME280;55318;52.068;5.188;2023-03-03T09:26:28;102761.99999999999;;;5.77;90.13
68376;BME280;55318;52.068;5.188;2023-03-03T09:28:18;102767.0;;;5.8;89.55
68376;BME280;55318;52.068;5.188;2023-03-03T09:30:00;102761.99999999999;;;5.82;89.25
68376;BME280;55318;52.068;5.188;2023-03-03T09:31:39;102765.00000000001;;;5.88;88.77
68376;BME280;55318;52.068;5.188;2023-03-03T09:35:24;102766.00000000001;;;5.84;88.69
68376;BME280;55318;52.068;5.188;2023-03-03T09:37:19;102767.0;;;5.92;88.53
68376;BME280;55318;52.068;5.188;2023-03-03T09:38:58;102764.00000000001;;;5.92;87.53
68376;BME280;55318;52.068;5.188;2023-03-03T09:40:49;102765.00000000001;;;6.04;87.75
68376;BME280;55318;52.068;5.188;2023-03-03T09:43:01;102771.0;;;6.1;87.96
68376;BME280;55318;52.068;5.188;2023-03-03T09:44:54;102765.00000000001;;;6.03;86.84
68376;BME280;55318;52.068;5.188;2023-03-03T09:47:52;102767.0;;;6.07;87.7
68376;BME280;55318;52.068;5.188;2023-03-03T09:49:44;102768.0;;;6.12;87.6
68376;BME280;55318;52.068;5.188;2023-03-03T09:51:40;102769.0;;;6.24;87.35
68376;BME280;55318;52.068;5.188;2023-03-03T09:54:04;102772.0;;;6.35;87.56
68376;BME280;55318;52.068;5.188;2023-03-03T09:55:58;102775.0;;;6.53;87.87
68376;BME280;55318;52.068;5.188;2023-03-03T09:57:52;102782.0;;;6.6;85.32
68376;BME280;55318;52.068;5.188;2023-03-03T09:59:44;102780.0;;;6.71;84.99
68376;BME280;55318;52.068;5.188;2023-03-03T10:02:01;102781.0;;;6.62;83.79
68376;BME280;55318;52.068;5.188;2023-03-03T10:04:37;102774.0;;;6.84;85.37
68376;BME280;55318;52.068;5.188;2023-03-03T10:06:52;102778.0;;;6.8;83.93
68376;BME280;55318;52.068;5.188;2023-03-03T10:08:45;102784.99999999999;;;6.72;83.68
68376;BME280;55318;52.068;5.188;2023-03-03T10:10:43;102784.99999999999;;;6.74;84.38
68376;BME280;55318;52.068;5.188;2023-03-03T10:13:02;102782.0;;;6.72;83.19
68376;BME280;55318;52.068;5.188;2023-03-03T10:14:56;102779.0;;;6.64;83.46
68376;BME280;55318;52.068;5.188;2023-03-03T10:17:20;102783.0;;;6.59;83.5
68376;BME280;55318;52.068;5.188;2023-03-03T10:19:02;102783.0;;;6.54;83.8
68376;BME280;55318;52.068;5.188;2023-03-03T10:20:52;102774.0;;;6.83;84.12
68376;BME280;55318;52.068;5.188;2023-03-03T10:22:44;102777.0;;;7.0;83.33
68376;BME280;55318;52.068;5.188;2023-03-03T10:24:27;102780.0;;;6.99;82.05
68376;BME280;55318;52.068;5.188;2023-03-03T10:26:16;102775.0;;;6.91;82.45
68376;BME280;55318;52.068;5.188;2023-03-03T10:28:06;102773.0;;;7.19;83.22
68376;BME280;55318;52.068;5.188;2023-03-03T10:31:50;102772.0;;;7.53;82.48
68376;BME280;55318;52.068;5.188;2023-03-03T10:33:40;102769.0;;;7.38;81.03
68376;BME280;55318;52.068;5.188;2023-03-03T10:35:32;102768.0;;;7.5;81.06
68376;BME280;55318;52.068;5.188;2023-03-03T10:37:20;102769.0;;;7.71;81.59
68376;BME280;55318;52.068;5.188;2023-03-03T10:39:12;102769.0;;;7.88;81.45
68376;BME280;55318;52.068;5.188;2023-03-03T10:41:08;102770.0;;;7.94;80.77
68376;BME280;55318;52.068;5.188;2023-03-03T10:42:58;102772.0;;;8.05;79.66
68376;BME280;55318;52.068;5.188;2023-03-03T10:44:53;102774.0;;;8.24;79.61
68376;BME280;55318;52.068;5.188;2023-03-03T10:48:43;102773.0;;;8.39;78.36
68376;BME280;55318;52.068;5.188;2023-03-03T10:50:33;102772.0;;;8.34;76.98
68376;BME280;55318;52.068;5.188;2023-03-03T10:52:24;102773.0;;;8.32;75.95
68376;BME280;55318;52.068;5.188;2023-03-03T10:54:18;102773.0;;;8.23;76.47
68376;BME280;55318;52.068;5.188;2023-03-03T10:56:28;102772.0;;;7.97;75.86
68376;BME280;55318;52.068;5.188;2023-03-03T10:58:20;102775.0;;;8.14;76.25
68376;BME280;55318;52.068;5.188;2023-03-03T11:00:20;102775.0;;;8.03;76.72